createdAt,value
2022-10-05T00:00:13.748Z,4.07
2022-10-05T00:02:43.794Z,3.75
2022-10-05T00:05:32.389Z,4.15
2022-10-05T00:08:18.898Z,3.50
2022-10-05T00:10:46.594Z,3.65
2022-10-05T00:13:16.193Z,4.22
2022-10-05T00:15:43.429Z,3.75
2022-10-05T00:18:15.039Z,4.00
2022-10-05T00:20:42.584Z,3.97
2022-10-05T00:23:18.028Z,4.15
2022-10-05T00:25:44.940Z,4.45
2022-10-05T00:28:26.500Z,3.97
2022-10-05T00:30:59.112Z,3.50
2022-10-05T00:33:27.297Z,3.97
2022-10-05T00:35:54.956Z,4.05
2022-10-05T00:38:21.872Z,3.72
2022-10-05T00:41:04.452Z,3.30
2022-10-05T00:44:02.045Z,3.38
2022-10-05T00:46:52.458Z,3.40
2022-10-05T00:49:47.628Z,3.85
2022-10-05T00:52:35.397Z,4.18
2022-10-05T00:55:18.539Z,3.50
2022-10-05T00:57:56.915Z,3.17
2022-10-05T01:00:27.916Z,3.30
2022-10-05T01:02:57.453Z,3.50
2022-10-05T01:05:33.565Z,3.40
2022-10-05T01:08:21.980Z,3.88
2022-10-05T01:10:58.138Z,3.40
2022-10-05T01:16:38.559Z,3.92
2022-10-05T01:19:28.628Z,3.95
2022-10-05T01:22:11.680Z,3.95
2022-10-05T01:24:51.140Z,4.18
2022-10-05T01:27:37.423Z,3.78
2022-10-05T01:30:15.928Z,3.50
2022-10-05T01:33:03.646Z,3.47
2022-10-05T01:36:16.581Z,4.05
2022-10-05T01:39:03.893Z,3.45
2022-10-05T01:41:40.470Z,3.97
2022-10-05T01:44:15.425Z,3.55
2022-10-05T01:47:14.411Z,3.97
2022-10-05T01:49:55.516Z,4.03
2022-10-05T01:52:48.693Z,4.28
2022-10-05T01:55:38.434Z,4.45
2022-10-05T01:58:46.523Z,4.13
2022-10-05T02:01:41.826Z,4.13
2022-10-05T02:04:42.758Z,5.90
2022-10-05T02:07:13.844Z,5.40
2022-10-05T02:09:54.022Z,4.15
2022-10-05T02:12:24.690Z,3.72
2022-10-05T02:14:58.496Z,4.10
2022-10-05T02:17:43.538Z,3.45
2022-10-05T02:20:15.041Z,3.50
2022-10-05T02:22:49.285Z,3.15
2022-10-05T02:25:26.793Z,3.95
2022-10-05T02:27:58.266Z,4.15
2022-10-05T02:30:25.305Z,3.90
2022-10-05T02:33:28.671Z,3.50
2022-10-05T02:36:20.805Z,3.88
2022-10-05T02:39:01.772Z,3.58
2022-10-05T02:42:06.489Z,3.10
2022-10-05T02:44:41.493Z,3.65
2022-10-05T02:47:27.951Z,3.13
2022-10-05T02:50:07.713Z,2.88
2022-10-05T02:52:43.313Z,4.60
2022-10-05T02:55:19.902Z,3.47
2022-10-05T02:58:08.566Z,4.00
2022-10-05T03:00:42.852Z,3.72
2022-10-05T03:03:31.869Z,3.70
2022-10-05T03:06:09.214Z,3.40
2022-10-05T03:08:54.151Z,3.67
2022-10-05T03:11:35.174Z,4.75
2022-10-05T03:14:11.912Z,4.38
2022-10-05T03:16:45.581Z,3.60
2022-10-05T03:20:00.153Z,3.40
2022-10-05T03:22:56.988Z,3.53
2022-10-05T03:25:53.903Z,3.92
2022-10-05T03:28:27.503Z,3.53
2022-10-05T03:31:24.246Z,3.60
2022-10-05T03:34:09.532Z,3.58
2022-10-05T03:37:11.196Z,4.78
2022-10-05T03:40:20.349Z,4.70
2022-10-05T03:43:17.920Z,3.97
2022-10-05T03:45:49.546Z,3.78
2022-10-05T03:48:26.393Z,3.70
2022-10-05T03:51:07.409Z,3.92
2022-10-05T03:53:49.757Z,3.65
2022-10-05T03:56:36.207Z,4.05
2022-10-05T03:59:23.456Z,3.72
2022-10-05T04:01:57.847Z,5.15
2022-10-05T04:04:32.885Z,4.05
2022-10-05T04:07:00.522Z,3.80
2022-10-05T04:09:40.832Z,4.38
2022-10-05T04:12:25.340Z,4.35
2022-10-05T04:15:03.673Z,4.20
2022-10-05T04:17:50.552Z,3.70
2022-10-05T04:20:32.933Z,4.53
2022-10-05T04:23:27.950Z,4.57
2022-10-05T04:26:02.205Z,4.28
2022-10-05T04:28:40.812Z,3.70
2022-10-05T04:31:15.207Z,4.80
2022-10-05T04:33:48.972Z,4.45
2022-10-05T04:36:21.474Z,4.30
2022-10-05T04:39:07.819Z,3.97
2022-10-05T04:42:16.981Z,4.10
2022-10-05T04:45:03.989Z,4.85
2022-10-05T04:47:37.735Z,4.40
2022-10-05T04:50:28.293Z,4.18
2022-10-05T04:53:13.745Z,4.47
2022-10-05T04:55:52.295Z,4.18
2022-10-05T04:58:58.317Z,4.35
2022-10-05T05:01:43.532Z,4.60
2022-10-05T05:04:19.576Z,4.15
2022-10-05T05:07:11.229Z,4.80
2022-10-05T05:10:14.799Z,4.38
2022-10-05T05:12:52.811Z,4.50
2022-10-05T05:15:37.561Z,5.80
2022-10-05T05:18:47.829Z,5.45
2022-10-05T05:21:29.528Z,5.97
2022-10-05T05:24:10.568Z,6.00
2022-10-05T05:27:08.316Z,4.95
2022-10-05T05:30:04.245Z,5.65
2022-10-05T05:32:30.895Z,5.40
2022-10-05T05:35:12.637Z,8.05
2022-10-05T05:38:01.505Z,9.95
2022-10-05T05:40:33.498Z,7.10
2022-10-05T05:43:11.660Z,7.93
2022-10-05T05:45:42.441Z,7.55
2022-10-05T05:48:37.724Z,7.65
2022-10-05T05:51:09.830Z,6.97
2022-10-05T05:54:10.764Z,6.25
2022-10-05T05:56:47.973Z,6.22
2022-10-05T05:59:21.060Z,6.20
2022-10-05T06:01:52.003Z,6.45
2022-10-05T06:04:27.708Z,6.15
2022-10-05T06:06:56.705Z,6.53
2022-10-05T06:09:33.330Z,7.00
2022-10-05T06:12:08.867Z,6.82
2022-10-05T06:14:44.818Z,6.57
2022-10-05T06:17:32.109Z,6.55
2022-10-05T06:20:05.033Z,6.43
2022-10-05T06:22:40.349Z,6.82
2022-10-05T06:25:12.779Z,5.43
2022-10-05T06:27:58.448Z,6.88
2022-10-05T06:30:29.724Z,7.32
2022-10-05T06:33:14.032Z,6.90
2022-10-05T06:35:47.933Z,6.20
2022-10-05T06:38:33.595Z,6.63
2022-10-05T06:41:23.232Z,5.70
2022-10-05T06:44:08.126Z,5.60
2022-10-05T06:46:39.481Z,5.88
2022-10-05T06:49:17.931Z,6.03
2022-10-05T06:52:01.116Z,6.53
2022-10-05T06:54:42.790Z,6.68
2022-10-05T06:57:27.896Z,7.40
2022-10-05T07:00:22.648Z,6.05
2022-10-05T07:03:08.467Z,6.28
2022-10-05T07:05:58.281Z,6.30
2022-10-05T07:08:43.680Z,6.03
2022-10-05T07:11:16.125Z,6.40
2022-10-05T07:14:13.224Z,6.25
2022-10-05T07:19:26.011Z,6.50
2022-10-05T07:21:52.665Z,6.30
2022-10-05T07:24:27.284Z,6.30
2022-10-05T07:27:15.896Z,5.80
2022-10-05T07:30:00.503Z,6.10
2022-10-05T07:32:35.775Z,6.00
2022-10-05T07:35:34.479Z,5.47
2022-10-05T07:38:09.555Z,5.93
2022-10-05T07:40:47.618Z,6.35
2022-10-05T07:43:40.328Z,6.28
2022-10-05T07:46:29.489Z,5.38
2022-10-05T07:49:03.348Z,6.38
2022-10-05T07:51:45.125Z,5.68
2022-10-05T07:54:21.353Z,5.57
2022-10-05T07:59:59.056Z,6.68
2022-10-05T08:02:28.432Z,6.40
2022-10-05T08:05:10.822Z,6.68
2022-10-05T08:07:37.955Z,6.55
2022-10-05T08:10:27.719Z,5.65
2022-10-05T08:13:14.955Z,6.38
2022-10-05T08:15:44.788Z,5.90
2022-10-05T08:18:15.484Z,5.68
2022-10-05T08:20:54.704Z,8.63
2022-10-05T08:23:22.085Z,5.82
2022-10-05T08:25:52.095Z,5.80
2022-10-05T08:28:25.514Z,5.10
2022-10-05T08:31:04.206Z,7.20
2022-10-05T08:34:01.575Z,5.90
2022-10-05T08:36:54.100Z,10.07
2022-10-05T08:39:24.269Z,8.02
2022-10-05T08:42:19.747Z,6.35
2022-10-05T08:45:24.029Z,6.70
2022-10-05T08:48:01.360Z,5.97
2022-10-05T08:50:57.225Z,4.57
2022-10-05T08:53:50.135Z,7.05
2022-10-05T08:56:34.937Z,5.38
2022-10-05T08:59:36.629Z,5.10
2022-10-05T09:02:29.074Z,7.47
2022-10-05T09:05:18.814Z,4.95
2022-10-05T09:08:00.438Z,5.22
2022-10-05T09:10:32.923Z,7.45
2022-10-05T09:13:09.636Z,7.03
2022-10-05T09:15:58.672Z,6.63
2022-10-05T09:18:59.785Z,9.10
2022-10-05T09:21:38.334Z,8.73
2022-10-05T09:24:14.024Z,4.88
2022-10-05T09:26:40.675Z,4.65
2022-10-05T09:29:38.573Z,4.88
2022-10-05T09:32:23.673Z,5.55
2022-10-05T09:35:08.480Z,6.60
2022-10-05T09:37:35.143Z,4.53
2022-10-05T09:40:23.814Z,4.90
2022-10-05T09:43:07.408Z,5.43
2022-10-05T09:45:59.491Z,5.15
2022-10-05T09:49:01.202Z,5.28
2022-10-05T09:51:52.317Z,4.30
2022-10-05T09:54:51.177Z,4.55
2022-10-05T09:57:35.769Z,5.13
2022-10-05T10:00:21.699Z,5.00
2022-10-05T10:03:13.812Z,5.03
2022-10-05T10:05:47.254Z,4.20
2022-10-05T10:08:32.718Z,6.40
2022-10-05T10:11:16.341Z,5.07
2022-10-05T10:13:53.565Z,5.15
2022-10-05T10:16:57.668Z,4.78
2022-10-05T10:19:39.349Z,5.40
2022-10-05T10:22:18.039Z,4.55
2022-10-05T10:25:06.902Z,4.45
2022-10-05T10:27:54.194Z,8.07
2022-10-05T10:30:41.013Z,4.78
2022-10-05T10:33:15.435Z,7.60
2022-10-05T10:35:50.085Z,4.95
2022-10-05T10:38:26.541Z,5.05
2022-10-05T10:41:05.264Z,6.78
2022-10-05T10:43:50.220Z,6.07
2022-10-05T10:46:53.973Z,3.78
2022-10-05T10:49:45.370Z,4.85
2022-10-05T10:52:32.521Z,4.72
2022-10-05T10:55:14.190Z,5.07
2022-10-05T10:58:16.065Z,5.18
2022-10-05T11:01:04.483Z,5.78
2022-10-05T11:03:49.336Z,5.82
2022-10-05T11:06:17.260Z,5.07
2022-10-05T11:09:27.925Z,4.47
2022-10-05T11:12:09.334Z,5.30
2022-10-05T11:15:00.775Z,4.85
2022-10-05T11:17:52.844Z,7.32
2022-10-05T11:20:39.950Z,5.03
2022-10-05T11:23:25.343Z,5.00
2022-10-05T11:26:01.616Z,5.03
2022-10-05T11:28:43.537Z,5.88
2022-10-05T11:31:48.064Z,5.55
2022-10-05T11:34:50.619Z,5.28
2022-10-05T11:37:39.978Z,4.43
2022-10-05T11:40:36.838Z,4.57
2022-10-05T11:43:36.776Z,4.85
2022-10-05T11:46:27.837Z,4.78
2022-10-05T11:49:15.156Z,4.03
2022-10-05T11:52:20.128Z,4.18
2022-10-05T11:55:11.002Z,4.47
2022-10-05T11:57:49.266Z,4.15
2022-10-05T12:00:21.775Z,4.38
2022-10-05T12:02:52.896Z,3.88
2022-10-05T12:05:43.685Z,4.05
2022-10-05T12:08:34.132Z,4.57
2022-10-05T12:11:13.182Z,3.65
2022-10-05T12:13:52.543Z,4.70
2022-10-05T12:16:22.670Z,3.53
2022-10-05T12:19:17.698Z,3.67
2022-10-05T12:21:56.292Z,3.47
2022-10-05T12:24:28.864Z,4.07
2022-10-05T12:27:07.922Z,3.60
2022-10-05T12:29:34.639Z,3.85
2022-10-05T12:32:04.254Z,2.97
2022-10-05T12:34:45.844Z,3.35
2022-10-05T12:37:56.150Z,3.15
2022-10-05T12:40:40.817Z,2.95
2022-10-05T12:43:33.585Z,2.63
2022-10-05T12:46:17.713Z,3.35
2022-10-05T12:49:29.706Z,2.80
2022-10-05T12:51:59.604Z,2.25
2022-10-05T12:54:52.468Z,2.20
2022-10-05T12:57:32.031Z,2.25
2022-10-05T13:00:09.117Z,2.05
2022-10-05T13:02:44.044Z,2.45
2022-10-05T13:05:10.673Z,2.40
2022-10-05T13:07:46.269Z,2.35
2022-10-05T13:10:12.976Z,2.50
2022-10-05T13:13:17.204Z,2.40
2022-10-05T13:16:15.789Z,2.50
2022-10-05T13:18:59.008Z,2.15
2022-10-05T13:21:45.721Z,2.10
2022-10-05T13:24:19.843Z,2.38
2022-10-05T13:26:52.388Z,2.40
2022-10-05T13:29:45.553Z,3.13
2022-10-05T13:32:38.656Z,2.60
2022-10-05T13:35:40.326Z,2.28
2022-10-05T13:38:12.814Z,3.17
2022-10-05T13:40:46.811Z,2.15
2022-10-05T13:43:39.104Z,2.80
2022-10-05T13:46:09.334Z,2.45
2022-10-05T13:49:00.340Z,2.78
2022-10-05T13:51:56.946Z,2.10
2022-10-05T13:54:31.578Z,2.42
2022-10-05T13:57:33.232Z,2.60
2022-10-05T14:00:12.764Z,2.22
2022-10-05T14:02:42.249Z,2.33
2022-10-05T14:05:23.895Z,2.30
2022-10-05T14:07:52.918Z,2.10
2022-10-05T14:10:43.547Z,2.55
2022-10-05T14:13:31.611Z,2.60
2022-10-05T14:16:13.492Z,2.08
2022-10-05T14:19:04.602Z,1.98
2022-10-05T14:21:42.468Z,2.42
2022-10-05T14:24:46.151Z,2.05
2022-10-05T14:27:25.434Z,2.70
2022-10-05T14:29:57.826Z,2.10
2022-10-05T14:32:27.301Z,2.40
2022-10-05T14:35:15.168Z,2.20
2022-10-05T14:37:44.697Z,2.28
2022-10-05T14:40:23.665Z,1.83
2022-10-05T14:42:50.877Z,2.45
2022-10-05T14:45:21.941Z,2.22
2022-10-05T14:48:00.272Z,2.40
2022-10-05T14:50:30.717Z,1.92
2022-10-05T14:53:14.248Z,1.80
2022-10-05T14:56:18.464Z,11.27
2022-10-05T14:58:59.974Z,3.72
2022-10-05T15:01:32.675Z,2.92
2022-10-05T15:04:02.574Z,2.63
2022-10-05T15:06:42.145Z,4.10
2022-10-05T15:09:19.254Z,5.13
2022-10-05T15:11:53.144Z,3.10
2022-10-05T15:14:29.532Z,2.90
2022-10-05T15:17:13.503Z,3.25
2022-10-05T15:19:52.700Z,3.53
2022-10-05T15:22:42.412Z,3.53
2022-10-05T15:25:23.039Z,4.68
2022-10-05T15:28:20.632Z,4.00
2022-10-05T15:31:05.062Z,4.30
2022-10-05T15:33:38.058Z,4.38
2022-10-05T15:36:16.552Z,4.65
2022-10-05T15:39:03.681Z,3.95
2022-10-05T15:41:59.552Z,3.30
2022-10-05T15:44:48.985Z,4.03
2022-10-05T15:47:27.141Z,3.25
2022-10-05T15:50:15.290Z,4.10
2022-10-05T15:53:10.539Z,3.10
2022-10-05T15:56:04.343Z,3.10
2022-10-05T15:58:57.497Z,3.75
2022-10-05T16:01:33.322Z,3.25
2022-10-05T16:04:05.920Z,3.72
2022-10-05T16:07:09.415Z,4.60
2022-10-05T16:09:56.340Z,6.60
2022-10-05T16:12:26.052Z,6.00
2022-10-05T16:14:59.810Z,6.57
2022-10-05T16:17:53.854Z,6.07
2022-10-05T16:20:41.614Z,4.45
2022-10-05T16:23:41.795Z,5.05
2022-10-05T16:26:14.691Z,8.70
2022-10-05T16:29:15.068Z,4.85
2022-10-05T16:32:08.374Z,23.98
2022-10-05T16:34:41.129Z,30.65
2022-10-05T16:37:23.956Z,22.60
2022-10-05T16:39:59.336Z,16.95
2022-10-05T16:42:50.021Z,11.07
2022-10-05T16:45:45.359Z,12.93
2022-10-05T16:48:26.730Z,7.32
2022-10-05T16:51:48.077Z,10.15
2022-10-05T16:54:20.211Z,7.20
2022-10-05T16:56:54.820Z,12.82
2022-10-05T16:59:40.385Z,14.98
2022-10-05T17:02:19.355Z,11.68
2022-10-05T17:05:17.030Z,11.27
2022-10-05T17:07:46.549Z,8.68
2022-10-05T17:10:37.612Z,6.60
2022-10-05T17:13:19.870Z,6.57
2022-10-05T17:16:20.084Z,8.75
2022-10-05T17:19:01.576Z,7.82
2022-10-05T17:21:46.168Z,7.18
2022-10-05T17:24:21.789Z,8.02
2022-10-05T17:26:56.820Z,6.43
2022-10-05T17:29:42.827Z,7.85
2022-10-05T17:32:11.184Z,6.90
2022-10-05T17:35:00.576Z,6.45
2022-10-05T17:37:27.265Z,6.28
2022-10-05T17:39:57.903Z,5.60
2022-10-05T17:42:30.314Z,8.75
2022-10-05T17:45:12.271Z,10.85
2022-10-05T17:48:08.693Z,10.40
2022-10-05T17:51:03.045Z,9.07
2022-10-05T17:54:03.422Z,10.43
2022-10-05T17:56:32.260Z,8.90
2022-10-05T17:59:02.128Z,10.20
2022-10-05T18:01:35.394Z,9.98
2022-10-05T18:04:16.111Z,7.57
2022-10-05T18:07:07.022Z,7.70
2022-10-05T18:09:36.148Z,9.32
2022-10-05T18:12:18.044Z,12.05
2022-10-05T18:14:56.462Z,22.08
2022-10-05T18:17:46.371Z,30.75
2022-10-05T18:20:19.086Z,19.95
2022-10-05T18:22:47.139Z,17.98
2022-10-05T18:25:34.055Z,20.17
2022-10-05T18:28:11.561Z,32.30
2022-10-05T18:30:58.915Z,16.05
2022-10-05T18:33:34.754Z,13.48
2022-10-05T18:36:27.409Z,18.08
2022-10-05T18:39:02.938Z,10.52
2022-10-05T18:41:35.497Z,7.45
2022-10-05T18:44:43.479Z,5.82
2022-10-05T18:47:44.179Z,4.50
2022-10-05T18:50:32.084Z,6.97
2022-10-05T18:53:11.389Z,7.13
2022-10-05T18:55:46.913Z,6.47
2022-10-05T18:58:35.197Z,5.20
2022-10-05T19:01:20.662Z,7.10
2022-10-05T19:04:03.347Z,5.75
2022-10-05T19:06:34.625Z,5.57
2022-10-05T19:09:01.254Z,5.75
2022-10-05T19:11:44.728Z,4.90
2022-10-05T19:14:21.471Z,6.40
2022-10-05T19:17:00.785Z,5.85
2022-10-05T19:19:59.690Z,6.10
2022-10-05T19:23:08.927Z,6.40
2022-10-05T19:26:03.427Z,6.57
2022-10-05T19:28:54.057Z,5.93
2022-10-05T19:31:48.166Z,5.90
2022-10-05T19:34:41.484Z,6.05
2022-10-05T19:37:24.943Z,5.22
2022-10-05T19:40:09.692Z,5.93
2022-10-05T19:43:09.809Z,5.55
2022-10-05T19:45:45.571Z,5.10
2022-10-05T19:48:30.328Z,7.20
2022-10-05T19:51:01.811Z,9.23
2022-10-05T19:53:37.771Z,6.90
2022-10-05T19:56:20.425Z,7.78
2022-10-05T19:58:48.974Z,6.25
2022-10-05T20:01:31.340Z,6.35
2022-10-05T20:03:58.215Z,6.70
2022-10-05T20:06:26.797Z,5.88
2022-10-05T20:08:59.937Z,5.15
2022-10-05T20:11:28.252Z,5.25
2022-10-05T20:13:59.626Z,5.57
2022-10-05T20:16:44.910Z,5.40
2022-10-05T20:19:35.765Z,6.20
2022-10-05T20:22:27.471Z,6.28
2022-10-05T20:25:01.140Z,5.97
2022-10-05T20:27:40.402Z,6.18
2022-10-05T20:30:08.718Z,6.00
2022-10-05T20:32:35.409Z,5.57
2022-10-05T20:35:02.167Z,5.80
2022-10-05T20:37:28.920Z,4.85
2022-10-05T20:39:55.594Z,5.32
2022-10-05T20:42:23.807Z,5.05
2022-10-05T20:44:55.767Z,5.32
2022-10-05T20:47:24.192Z,4.72
2022-10-05T20:49:50.885Z,5.53
2022-10-05T20:52:17.589Z,5.68
2022-10-05T20:57:15.947Z,5.38
2022-10-05T20:59:42.640Z,4.82
2022-10-05T21:02:09.912Z,5.43
2022-10-05T21:04:41.414Z,4.97
2022-10-05T21:07:08.721Z,5.28
2022-10-05T21:09:38.291Z,5.57
2022-10-05T21:12:05.434Z,6.97
2022-10-05T21:14:34.293Z,9.95
2022-10-05T21:17:02.044Z,9.73
2022-10-05T21:19:29.555Z,8.60
2022-10-05T21:21:59.094Z,11.45
2022-10-05T21:24:26.120Z,9.40
2022-10-05T21:26:55.207Z,8.55
2022-10-05T21:29:22.078Z,8.38
2022-10-05T21:31:48.875Z,6.85
2022-10-05T21:34:15.760Z,7.35
2022-10-05T21:36:42.436Z,7.13
2022-10-05T21:39:09.123Z,6.40
2022-10-05T21:41:35.796Z,6.57
2022-10-05T21:44:02.566Z,5.30
2022-10-05T21:46:29.989Z,7.05
2022-10-05T21:48:56.729Z,5.50
2022-10-05T21:51:25.457Z,5.13
2022-10-05T21:53:54.932Z,5.07
2022-10-05T21:56:24.578Z,5.85
2022-10-05T21:58:52.174Z,5.20
2022-10-05T22:01:22.385Z,4.90
2022-10-05T22:03:49.526Z,5.32
2022-10-05T22:06:16.181Z,6.13
2022-10-05T22:08:42.888Z,8.55
2022-10-05T22:11:12.104Z,9.45
2022-10-05T22:13:47.583Z,9.07
2022-10-05T22:16:15.711Z,6.93
2022-10-05T22:18:43.107Z,7.53
2022-10-05T22:21:12.071Z,7.70
2022-10-05T22:23:43.542Z,6.80
2022-10-05T22:26:12.901Z,7.47
2022-10-05T22:28:40.608Z,7.07
2022-10-05T22:31:09.556Z,7.43
2022-10-05T22:33:37.163Z,6.90
2022-10-05T22:36:04.716Z,6.10
2022-10-05T22:38:31.945Z,5.22
2022-10-05T22:40:58.875Z,6.03
2022-10-05T22:43:26.981Z,6.50
2022-10-05T22:45:54.155Z,6.03
2022-10-05T22:48:20.941Z,5.65
2022-10-05T22:50:47.880Z,4.97
2022-10-05T22:53:14.557Z,5.28
2022-10-05T22:55:41.294Z,5.68
2022-10-05T22:58:08.041Z,5.38
2022-10-05T23:00:56.509Z,5.50
2022-10-05T23:03:21.579Z,5.75
2022-10-05T23:05:48.265Z,5.05
2022-10-05T23:08:16.008Z,5.55
2022-10-05T23:10:43.401Z,5.63
2022-10-05T23:13:10.148Z,5.40
2022-10-05T23:15:36.821Z,5.32
2022-10-05T23:18:03.621Z,5.22
2022-10-05T23:20:30.340Z,5.38
2022-10-05T23:22:58.750Z,5.28
2022-10-05T23:25:25.651Z,5.07
2022-10-05T23:27:52.324Z,5.95
2022-10-05T23:30:19.102Z,4.43
2022-10-05T23:32:45.992Z,4.50
2022-10-05T23:35:13.536Z,5.13
2022-10-05T23:37:42.369Z,5.70
2022-10-05T23:40:12.101Z,5.32
2022-10-05T23:42:42.494Z,4.43
2022-10-05T23:45:10.976Z,5.75
2022-10-05T23:47:38.551Z,4.95
2022-10-05T23:50:07.054Z,4.90
2022-10-05T23:52:35.164Z,5.65
2022-10-05T23:55:04.221Z,4.40
2022-10-05T23:57:30.949Z,4.55
2022-10-05T23:59:57.655Z,4.60
